Time,TemperatureF,DewpointF,PressureIn,WindDirection,WindDirectionDegrees,WindSpeedMPH,WindSpeedGustMPH,Humidity,HourlyPrecipIn,Conditions,Clouds,dailyrainin,SoftwareType,DateUTC
2013-02-09 00:02:00,29.0,29.0,-100.00,North,0,4.0,16.0,97,-99.99,,,-99.99,,2013-02-09 09:02:00,
2013-02-09 00:11:00,29.0,29.0,-100.00,North,0,4.0,16.0,97,-99.99,,,-99.99,,2013-02-09 09:11:00,
2013-02-09 01:52:00,29.0,28.0,-100.00,North,0,7.0,18.0,97,-99.99,,,-99.99,,2013-02-09 10:52:00,
2013-02-09 02:01:00,29.0,28.0,-100.00,North,0,7.0,18.0,97,-99.99,,,-99.99,,2013-02-09 11:01:00,
2013-02-09 02:11:00,29.0,28.0,-100.00,North,0,7.0,18.0,97,-99.99,,,-99.99,,2013-02-09 11:11:00,
2013-02-09 02:21:00,29.0,28.0,-100.00,North,0,3.0,15.0,97,-99.99,,,-99.99,,2013-02-09 11:21:00,
2013-02-09 02:31:00,29.0,28.0,-100.00,North,0,3.0,15.0,97,-99.99,,,-99.99,,2013-02-09 11:31:00,
2013-02-09 02:41:00,29.0,28.0,-100.00,North,0,3.0,15.0,97,-99.99,,,-99.99,,2013-02-09 11:41:00,
2013-02-09 02:52:00,29.0,28.0,-100.00,North,0,6.0,14.0,97,-99.99,,,-99.99,,2013-02-09 11:52:00,
2013-02-09 03:02:00,29.0,28.0,-100.00,North,0,6.0,14.0,97,-99.99,,,-99.99,,2013-02-09 12:02:00,
2013-02-09 03:11:00,29.0,28.0,-100.00,North,0,6.0,14.0,97,-99.99,,,-99.99,,2013-02-09 12:11:00,
2013-02-09 05:52:00,30.0,29.0,-100.00,North,0,6.0,18.0,96,-99.99,,,-99.99,,2013-02-09 14:52:00,
2013-02-09 06:01:00,30.0,29.0,-100.00,North,0,6.0,18.0,96,-99.99,,,-99.99,,2013-02-09 15:01:00,
2013-02-09 06:11:00,30.0,29.0,-100.00,North,0,6.0,18.0,96,-99.99,,,-99.99,,2013-02-09 15:11:00,
2013-02-09 06:21:00,31.0,30.0,-100.00,North,0,4.0,16.0,97,-99.99,,,-99.99,,2013-02-09 15:21:00,
2013-02-09 06:32:00,31.0,30.0,-100.00,North,0,4.0,16.0,97,-99.99,,,-99.99,,2013-02-09 15:32:00,
2013-02-09 06:41:00,31.0,30.0,-100.00,North,0,4.0,16.0,97,-99.99,,,-99.99,,2013-02-09 15:41:00,
2013-02-09 06:51:00,31.0,30.0,-100.00,NNW,345,7.0,17.0,97,-99.99,,,-99.99,,2013-02-09 15:51:00,
2013-02-09 07:01:00,31.0,30.0,-100.00,NNW,345,7.0,17.0,97,-99.99,,,-99.99,,2013-02-09 16:01:00,
2013-02-09 07:11:00,31.0,30.0,-100.00,NNW,345,7.0,17.0,97,-99.99,,,-99.99,,2013-02-09 16:11:00,
2013-02-09 07:21:00,30.0,30.0,-100.00,North,0,8.0,20.0,97,-99.99,,,-99.99,,2013-02-09 16:21:00,
2013-02-09 07:31:00,30.0,30.0,-100.00,North,0,8.0,20.0,97,-99.99,,,-99.99,,2013-02-09 16:31:00,
2013-02-09 07:52:00,31.0,30.0,-100.00,North,0,9.0,19.0,97,-99.99,,,-99.99,,2013-02-09 16:52:00,
2013-02-09 08:01:00,31.0,30.0,-100.00,North,0,9.0,19.0,97,-99.99,,,-99.99,,2013-02-09 17:01:00,
2013-02-09 08:21:00,31.0,30.0,-100.00,NNE,30,7.0,15.0,96,-99.99,,,-99.99,,2013-02-09 17:21:00,
2013-02-09 08:32:00,31.0,30.0,-100.00,NNE,30,7.0,15.0,96,-99.99,,,-99.99,,2013-02-09 17:32:00,
2013-02-09 08:41:00,31.0,30.0,-100.00,NNE,30,7.0,15.0,96,-99.99,,,-99.99,,2013-02-09 17:41:00,
2013-02-09 08:52:00,31.0,30.0,-100.00,NNW,340,6.0,11.0,96,-99.99,,,-99.99,,2013-02-09 17:52:00,
2013-02-09 09:01:00,31.0,30.0,-100.00,NNW,340,6.0,11.0,96,-99.99,,,-99.99,,2013-02-09 18:01:00,
2013-02-09 09:11:00,31.0,30.0,-100.00,NNW,340,6.0,11.0,96,-99.99,,,-99.99,,2013-02-09 18:11:00,
2013-02-09 09:52:00,31.0,30.0,-100.00,NNW,330,4.0,7.0,95,-99.99,,,-99.99,,2013-02-09 18:52:00,
2013-02-09 10:01:00,31.0,30.0,-100.00,NNW,330,4.0,7.0,95,-99.99,,,-99.99,,2013-02-09 19:01:00,
2013-02-09 10:22:00,34.0,31.0,-100.00,North,0,2.0,11.0,89,-99.99,,,-99.99,,2013-02-09 19:22:00,
2013-02-09 10:31:00,34.0,31.0,-100.00,North,0,2.0,11.0,89,-99.99,,,-99.99,,2013-02-09 19:31:00,
2013-02-09 10:41:00,34.0,31.0,-100.00,North,0,2.0,11.0,89,-99.99,,,-99.99,,2013-02-09 19:41:00,
2013-02-09 10:52:00,34.0,31.0,-100.00,NE,35,2.0,7.0,88,-99.99,,,-99.99,,2013-02-09 19:52:00,
2013-02-09 11:01:00,34.0,31.0,-100.00,NE,35,2.0,7.0,88,-99.99,,,-99.99,,2013-02-09 20:01:00,
2013-02-09 11:11:00,34.0,31.0,-100.00,NE,35,2.0,7.0,88,-99.99,,,-99.99,,2013-02-09 20:11:00,
2013-02-09 11:21:00,34.0,31.0,-100.00,WSW,245,1.0,4.0,87,-99.99,,,-99.99,,2013-02-09 20:21:00,
2013-02-09 11:31:00,34.0,31.0,-100.00,WSW,245,1.0,4.0,87,-99.99,,,-99.99,,2013-02-09 20:31:00,
2013-02-09 11:41:00,34.0,31.0,-100.00,WSW,245,1.0,4.0,87,-99.99,,,-99.99,,2013-02-09 20:41:00,
2013-02-09 12:21:00,34.0,30.0,-100.00,WNW,285,2.0,5.0,86,-99.99,,,-99.99,,2013-02-09 21:21:00,
2013-02-09 12:31:00,34.0,30.0,-100.00,WNW,285,2.0,5.0,86,-99.99,,,-99.99,,2013-02-09 21:31:00,
2013-02-09 12:52:00,38.0,34.0,-100.00,NE,55,4.0,9.0,85,-99.99,,,-99.99,,2013-02-09 21:52:00,
2013-02-09 13:01:00,38.0,34.0,-100.00,NE,55,4.0,9.0,85,-99.99,,,-99.99,,2013-02-09 22:01:00,
2013-02-09 13:11:00,38.0,34.0,-100.00,NE,55,4.0,9.0,85,-99.99,,,-99.99,,2013-02-09 22:11:00,
2013-02-09 13:21:00,36.0,30.0,-100.00,NNW,330,5.0,12.0,79,-99.99,,,-99.99,,2013-02-09 22:21:00,
2013-02-09 13:31:00,36.0,30.0,-100.00,NNW,330,5.0,12.0,79,-99.99,,,-99.99,,2013-02-09 22:31:00,
2013-02-09 13:41:00,36.0,30.0,-100.00,NNW,330,5.0,12.0,79,-99.99,,,-99.99,,2013-02-09 22:41:00,
2013-02-09 13:51:00,36.0,30.0,-100.00,NNW,330,5.0,12.0,79,-99.99,,,-99.99,,2013-02-09 22:51:00,
2013-02-09 14:21:00,37.0,32.0,-100.00,NNE,20,4.0,7.0,81,-99.99,,,-99.99,,2013-02-09 23:21:00,
2013-02-09 14:31:00,37.0,32.0,-100.00,NNE,20,4.0,7.0,81,-99.99,,,-99.99,,2013-02-09 23:31:00,
2013-02-09 14:41:00,37.0,32.0,-100.00,NNE,20,4.0,7.0,81,-99.99,,,-99.99,,2013-02-09 23:41:00,
2013-02-09 16:52:00,36.0,34.0,-100.00,ENE,70,6.0,7.0,91,-99.99,,,-99.99,,2013-02-10 01:52:00,
2013-02-09 17:01:00,36.0,34.0,-100.00,ENE,70,6.0,7.0,91,-99.99,,,-99.99,,2013-02-10 02:01:00,
2013-02-09 17:11:00,36.0,34.0,-100.00,ENE,70,6.0,7.0,91,-99.99,,,-99.99,,2013-02-10 02:11:00,
2013-02-09 17:22:00,36.0,34.0,-100.00,East,85,6.0,9.0,91,-99.99,,,-99.99,,2013-02-10 02:22:00,
2013-02-09 17:31:00,36.0,34.0,-100.00,East,85,6.0,9.0,91,-99.99,,,-99.99,,2013-02-10 02:31:00,
2013-02-09 19:21:00,38.0,32.0,-100.00,ESE,105,2.0,3.0,81,-99.99,,,-99.99,,2013-02-10 04:21:00,
2013-02-09 19:32:00,38.0,32.0,-100.00,ESE,105,2.0,3.0,81,-99.99,,,-99.99,,2013-02-10 04:32:00,
2013-02-09 19:41:00,38.0,32.0,-100.00,ESE,105,2.0,3.0,81,-99.99,,,-99.99,,2013-02-10 04:41:00,
2013-02-09 19:51:00,38.0,32.0,-100.00,ESE,105,2.0,3.0,81,-99.99,,,-99.99,,2013-02-10 04:51:00,
2013-02-09 20:52:00,38.0,33.0,-100.00,ENE,75,4.0,7.0,83,-99.99,,,-99.99,,2013-02-10 05:52:00,
2013-02-09 21:01:00,38.0,33.0,-100.00,ENE,75,4.0,7.0,83,-99.99,,,-99.99,,2013-02-10 06:01:00,
2013-02-09 21:21:00,39.0,33.0,-100.00,East,95,7.0,12.0,80,-99.99,,,-99.99,,2013-02-10 06:21:00,
2013-02-09 21:32:00,39.0,33.0,-100.00,East,95,7.0,12.0,80,-99.99,,,-99.99,,2013-02-10 06:32:00,
2013-02-09 21:42:00,39.0,33.0,-100.00,East,95,7.0,12.0,80,-99.99,,,-99.99,,2013-02-10 06:42:00,
2013-02-09 21:52:00,38.0,32.0,-100.00,ESE,105,6.0,7.0,80,-99.99,,,-99.99,,2013-02-10 06:52:00,
2013-02-09 22:01:00,38.0,32.0,-100.00,ESE,105,6.0,7.0,80,-99.99,,,-99.99,,2013-02-10 07:01:00,
2013-02-09 22:11:00,38.0,32.0,-100.00,ESE,105,6.0,7.0,80,-99.99,,,-99.99,,2013-02-10 07:11:00,
2013-02-09 22:21:00,37.0,33.0,-100.00,East,80,3.0,7.0,85,-99.99,,,-99.99,,2013-02-10 07:21:00,
2013-02-09 22:31:00,37.0,33.0,-100.00,East,80,3.0,7.0,85,-99.99,,,-99.99,,2013-02-10 07:31:00,
2013-02-09 22:41:00,37.0,33.0,-100.00,East,80,3.0,7.0,85,-99.99,,,-99.99,,2013-02-10 07:41:00,
2013-02-09 23:21:00,37.0,34.0,-100.00,East,80,4.0,7.0,87,-99.99,,,-99.99,,2013-02-10 08:21:00,
2013-02-09 23:32:00,37.0,34.0,-100.00,East,80,4.0,7.0,87,-99.99,,,-99.99,,2013-02-10 08:32:00,
2013-02-09 23:43:00,37.0,34.0,-100.00,East,80,4.0,7.0,87,-99.99,,,-99.99,,2013-02-10 08:43:00,
2013-02-09 23:52:00,37.0,34.0,-100.00,East,80,4.0,7.0,87,-99.99,,,-99.99,,2013-02-10 08:52:00,